Hauptseite
METAR-TAF:

METAR-TAF

Flughäfen :

Khartum, Sudan

Flughafen Khartum

Breite: 15-36N, Länge: 032-33E, Höhe: 382 m

Beobachtung

Neuester Wetterbericht von vor 15 Minuten, um 08:00 UTC
Wind 8 kt aus Nord
Temperatur 36°C
Luftfeuchtigkeit 8%
Luftdruck 1012 hPa
Sichtweite 10 km oder mehr
keine Wolken unter 1500 m und keine Kumulonimbus oder Gewitterwolken

METAR: HSSS 280800Z 36008KT CAVOK 36/M03 Q1012 NOSIG

Zeit: 11:15 (08:15 UTC)

Prognose

Neuester Wetterbericht von vor 3 Stunden und 15 Minuten, um 05:00 UTC
Gültige Prognose vom 28 um 06 UTC bis 29 um 12 UTC
Wind 6 kt aus Nord/Nordost, Böen bis zu 16 kt
Sichtweite 10 km oder mehr
Aufgelockert bewölkt in der Höhe von 14000 ft
Zeitweise
vom 28 um 06 UTC bis 28 um 09 UTC
Sichtweite: 6000 m

TAF: HSSS 280500Z 2806/2912 02006G16KT 9999 SCT140 TEMPO 2806/2809 6000

Wetterbeobachtungen und Prognosen von mehr als 4000 Flughäfen (METAR und TAF Bericht).

Die verfügbaren Stationen werden durch gelbe und rote Markierungen auf der Karte dargestellt.

Führen Sie die Maus auf sie, um den Namen der Station zu sehen.

Darauf klicken, um die Beobachtung von Wetterbeobachtungen und Prognosen zu sehen.

Um die Karte zu ändern : klicken Sie auf den grünen Tasten mit einem schwarzen Kreuz Zum Vergrößern, auf den grünen Button mit einem Gedankenstrich zu verkleinern, oder auf die grünen Pfeile für benachbarte Karten.


METAR-TAF: